Time;durP1;ratioP1;P1;durP2;ratioP2;P2;SDS_P1;SDS_P2;PMS_P1;PMS_P2;Temp;Humidity;BMP_temperature;BMP_pressure;BME280_temperature;BME280_humidity;BME280_pressure;Samples;Min_cycle;Max_cycle;Signal;HPM_P1;HPM_P2
2022/05/09 00:02:23;;;;;;;0.50;0.50;;;15.30;99.90;;;;;;5006907;28;20183;-81
2022/05/09 00:04:49;;;;;;;0.83;0.83;;;15.30;99.90;;;;;;5002649;28;20305;-82
2022/05/09 00:07:14;;;;;;;0.40;0.40;;;15.30;99.90;;;;;;5000556;28;20217;-81
2022/05/09 00:09:40;;;;;;;0.27;0.27;;;15.20;99.90;;;;;;5003361;28;20234;-82
2022/05/09 00:12:06;;;;;;;0.97;0.57;;;15.20;99.90;;;;;;5007955;28;20203;-82
2022/05/09 00:14:32;;;;;;;0.40;0.40;;;15.10;99.90;;;;;;5007150;28;20206;-82
2022/05/09 00:16:58;;;;;;;0.33;0.27;;;15.10;99.90;;;;;;5001219;28;20195;-82
2022/05/09 00:19:23;;;;;;;0.87;0.70;;;15.10;99.90;;;;;;5001079;28;20667;-82
2022/05/09 00:21:51;;;;;;;1.17;0.90;;;15.00;99.90;;;;;;5001099;28;20625;-82
2022/05/09 00:24:17;;;;;;;0.40;0.40;;;15.00;99.90;;;;;;5002008;28;20307;-81
2022/05/09 00:26:44;;;;;;;0.40;0.40;;;14.90;99.90;;;;;;5002463;28;20183;-81
2022/05/09 00:29:11;;;;;;;0.30;0.30;;;14.90;99.90;;;;;;5015031;28;20215;-82
2022/05/09 00:31:39;;;;;;;0.60;0.57;;;14.90;99.90;;;;;;5005610;28;20297;-82
2022/05/09 00:34:05;;;;;;;0.30;0.30;;;14.90;99.90;;;;;;5000963;28;20703;-81
2022/05/09 00:36:31;;;;;;;0.30;0.30;;;14.90;99.90;;;;;;5002174;28;20198;-83
2022/05/09 00:38:58;;;;;;;0.53;0.53;;;14.90;99.90;;;;;;5007051;28;20187;-82
2022/05/09 00:41:40;;;;;;;0.53;0.47;;;14.90;99.90;;;;;;5000209;28;20190;-82
2022/05/09 00:44:27;;;;;;;0.57;0.57;;;14.90;99.90;;;;;;5001938;28;20226;-82
2022/05/09 00:46:55;;;;;;;0.50;0.50;;;14.90;99.90;;;;;;5000542;28;20190;-81
2022/05/09 00:49:26;;;;;;;0.37;0.37;;;14.80;99.90;;;;;;5015191;28;20213;-82
2022/05/09 00:52:15;;;;;;;0.53;0.53;;;14.80;99.90;;;;;;5015588;28;20322;-82
2022/05/09 00:54:50;;;;;;;0.37;0.30;;;14.70;99.90;;;;;;5016261;28;20217;-82
2022/05/09 00:57:28;;;;;;;0.30;0.30;;;14.70;99.90;;;;;;5014824;28;20265;-82
2022/05/09 00:59:58;;;;;;;1.50;0.50;;;14.60;99.90;;;;;;5015690;28;20203;-81
2022/05/09 01:02:24;;;;;;;0.40;0.37;;;14.60;99.90;;;;;;5005768;28;20192;-81
2022/05/09 01:04:53;;;;;;;1.00;0.43;;;14.60;99.90;;;;;;5001526;28;20225;-81
2022/05/09 01:07:20;;;;;;;0.40;0.40;;;14.60;99.90;;;;;;5001513;28;20226;-82
2022/05/09 01:09:46;;;;;;;0.43;0.43;;;14.50;99.90;;;;;;5007758;28;20203;-82
2022/05/09 01:12:13;;;;;;;0.43;0.43;;;14.40;99.90;;;;;;5006851;28;20222;-82
2022/05/09 01:14:39;;;;;;;0.60;0.47;;;14.50;99.90;;;;;;5000684;28;20210;-82
2022/05/09 01:17:06;;;;;;;0.53;0.53;;;14.40;99.90;;;;;;4999921;28;20256;-82
2022/05/09 01:19:37;;;;;;;0.53;0.53;;;14.40;99.90;;;;;;5005950;28;20195;-82
2022/05/09 01:22:16;;;;;;;0.43;0.40;;;14.40;99.90;;;;;;5014639;28;20187;-83
2022/05/09 01:24:42;;;;;;;0.57;0.40;;;14.50;99.90;;;;;;5002129;28;20639;-82
2022/05/09 01:27:07;;;;;;;0.43;0.43;;;14.50;99.90;;;;;;5005527;28;20187;-82
2022/05/09 01:29:56;;;;;;;0.20;0.20;;;14.50;99.90;;;;;;5006131;28;20190;-82
2022/05/09 01:32:29;;;;;;;0.40;0.40;;;14.40;99.90;;;;;;5004464;28;20302;-83
2022/05/09 01:35:02;;;;;;;0.30;0.30;;;14.40;99.90;;;;;;5005706;28;20191;-82
2022/05/09 01:37:30;;;;;;;0.40;0.40;;;14.40;99.90;;;;;;5001807;28;20186;-82
2022/05/09 01:39:56;;;;;;;0.40;0.40;;;14.20;99.90;;;;;;5015310;28;20226;-82
2022/05/09 01:42:22;;;;;;;0.60;0.60;;;14.20;99.90;;;;;;5015055;28;20782;-82
2022/05/09 01:44:48;;;;;;;2.20;1.00;;;14.10;99.90;;;;;;5000932;28;20203;-81
2022/05/09 01:49:57;;;;;;;0.47;0.47;;;14.10;99.90;;;;;;5001124;28;20246;-83
2022/05/09 01:52:23;;;;;;;0.20;0.20;;;14.00;99.90;;;;;;5000099;28;20215;-82
2022/05/09 01:54:49;;;;;;;0.50;0.50;;;13.90;99.90;;;;;;5006108;28;20654;-83
2022/05/09 01:57:14;;;;;;;0.57;0.57;;;13.80;99.90;;;;;;5000964;28;20194;-81
2022/05/09 01:59:42;;;;;;;0.67;0.53;;;13.80;99.90;;;;;;5005684;28;20234;-82
2022/05/09 02:02:15;;;;;;;0.27;0.27;;;13.70;99.90;;;;;;5000552;28;20657;-83
2022/05/09 02:04:41;;;;;;;0.50;0.50;;;13.70;99.90;;;;;;4998763;28;20217;-83
2022/05/09 02:07:12;;;;;;;0.97;0.77;;;13.60;99.90;;;;;;5015279;28;20213;-82
2022/05/09 02:09:48;;;;;;;1.93;0.87;;;13.60;99.90;;;;;;5005364;28;20267;-82
2022/05/09 02:12:16;;;;;;;0.20;0.20;;;13.50;99.90;;;;;;5013005;28;20195;-82
2022/05/09 02:14:43;;;;;;;0.70;0.70;;;13.60;99.90;;;;;;4997673;28;20724;-83
2022/05/09 02:17:09;;;;;;;0.37;0.37;;;13.50;99.90;;;;;;5005827;28;20201;-83
2022/05/09 02:19:35;;;;;;;0.30;0.27;;;13.50;99.90;;;;;;4998084;28;20204;-83
2022/05/09 02:22:01;;;;;;;0.43;0.30;;;13.50;99.90;;;;;;5006405;28;20194;-82
2022/05/09 02:24:28;;;;;;;0.20;0.20;;;13.40;99.90;;;;;;5016620;28;20210;-83
2022/05/09 02:26:54;;;;;;;0.30;0.30;;;13.40;99.90;;;;;;5008897;28;20194;-82
2022/05/09 02:29:20;;;;;;;0.47;0.47;;;13.40;99.90;;;;;;5002455;28;20330;-82
2022/05/09 02:31:46;;;;;;;0.53;0.53;;;13.50;99.90;;;;;;5004179;28;20209;-84
2022/05/09 02:34:12;;;;;;;0.30;0.30;;;13.50;99.90;;;;;;5007151;28;20211;-82
2022/05/09 02:36:37;;;;;;;0.50;0.50;;;13.50;99.90;;;;;;5003325;28;20214;-81
2022/05/09 02:39:04;;;;;;;0.93;0.90;;;13.40;99.90;;;;;;5017994;28;20547;-82
2022/05/09 02:41:30;;;;;;;0.47;0.47;;;13.30;99.90;;;;;;5000228;28;20220;-82
2022/05/09 02:43:56;;;;;;;0.63;0.63;;;13.20;99.90;;;;;;5008538;28;20218;-83
2022/05/09 02:46:21;;;;;;;0.27;0.27;;;13.10;99.90;;;;;;5002048;28;20561;-81
2022/05/09 02:48:47;;;;;;;0.43;0.43;;;13.00;99.90;;;;;;5010901;28;20280;-81
2022/05/09 02:51:13;;;;;;;0.20;0.20;;;13.00;99.90;;;;;;5016819;28;20217;-83
2022/05/09 02:53:39;;;;;;;0.60;0.60;;;13.00;99.90;;;;;;5017306;28;20237;-84
2022/05/09 02:56:05;;;;;;;0.30;0.30;;;13.00;99.90;;;;;;5003475;28;20199;-84
2022/05/09 02:58:32;;;;;;;0.73;0.73;;;13.00;99.90;;;;;;5001976;28;20199;-83
2022/05/09 03:00:57;;;;;;;0.27;0.27;;;13.00;99.90;;;;;;5002520;28;20189;-82
2022/05/09 03:06:08;;;;;;;0.40;0.40;;;13.10;99.90;;;;;;4998446;28;20232;-82
2022/05/09 03:08:33;;;;;;;0.20;0.20;;;13.10;99.90;;;;;;5000635;28;20246;-83
2022/05/09 03:10:59;;;;;;;0.80;0.50;;;13.10;99.90;;;;;;5001603;28;20205;-82
2022/05/09 03:13:25;;;;;;;0.30;0.30;;;13.00;99.90;;;;;;5015040;28;20207;-82
2022/05/09 03:15:51;;;;;;;0.20;0.20;;;13.00;99.90;;;;;;5005869;28;20637;-82
2022/05/09 03:18:20;;;;;;;0.47;0.47;;;13.00;99.90;;;;;;5007150;28;20195;-82
2022/05/09 03:20:46;;;;;;;1.40;0.80;;;13.00;99.90;;;;;;5006826;28;20187;-82
2022/05/09 03:23:12;;;;;;;0.43;0.43;;;12.90;99.90;;;;;;5007589;28;20257;-82
2022/05/09 03:25:39;;;;;;;1.77;0.70;;;12.90;99.90;;;;;;5006781;28;20193;-81
2022/05/09 03:28:08;;;;;;;1.30;1.27;;;12.90;99.90;;;;;;4999165;28;20197;-82
2022/05/09 03:30:36;;;;;;;0.30;0.20;;;12.90;99.90;;;;;;5002144;28;20191;-82
2022/05/09 03:33:01;;;;;;;0.40;0.40;;;12.90;99.90;;;;;;4999296;28;20209;-82
2022/05/09 03:35:27;;;;;;;0.40;0.40;;;12.90;99.90;;;;;;5007489;28;20189;-82
2022/05/09 03:37:53;;;;;;;0.40;0.20;;;12.90;99.90;;;;;;5002561;28;20224;-82
2022/05/09 03:40:20;;;;;;;0.30;0.30;;;13.10;99.90;;;;;;5007549;28;20559;-82
2022/05/09 03:42:46;;;;;;;0.20;0.20;;;13.10;99.90;;;;;;5007653;28;20285;-82
2022/05/09 03:45:12;;;;;;;0.53;0.30;;;13.00;99.90;;;;;;5000944;28;20273;-82
2022/05/09 03:47:37;;;;;;;0.50;0.50;;;13.00;99.90;;;;;;5003180;28;20723;-82
2022/05/09 03:50:03;;;;;;;0.33;0.33;;;12.80;99.90;;;;;;5003797;28;20183;-81
2022/05/09 03:52:29;;;;;;;0.27;0.27;;;12.70;99.90;;;;;;5000654;28;20662;-81
2022/05/09 03:54:57;;;;;;;1.07;0.50;;;12.70;99.90;;;;;;5001820;28;21245;-82
2022/05/09 03:57:23;;;;;;;0.77;0.33;;;12.70;99.90;;;;;;5000419;28;20182;-81
2022/05/09 03:59:48;;;;;;;0.77;0.40;;;12.80;99.90;;;;;;5001164;28;20196;-81
2022/05/09 04:02:14;;;;;;;0.40;0.40;;;12.80;99.90;;;;;;4999854;28;20683;-82
2022/05/09 04:04:40;;;;;;;0.60;0.60;;;12.90;99.90;;;;;;5001538;28;20237;-82
2022/05/09 04:07:05;;;;;;;0.50;0.50;;;12.90;99.90;;;;;;5016311;28;20225;-81
2022/05/09 04:09:31;;;;;;;0.47;0.47;;;13.00;99.90;;;;;;5001585;28;20199;-82
2022/05/09 04:11:56;;;;;;;0.40;0.40;;;13.00;99.90;;;;;;5016487;28;20210;-83
2022/05/09 04:17:10;;;;;;;1.13;0.40;;;13.10;99.90;;;;;;5000703;28;20209;-82
2022/05/09 04:19:36;;;;;;;0.20;0.20;;;13.20;99.90;;;;;;5000614;28;20175;-81
2022/05/09 04:22:02;;;;;;;0.73;0.50;;;13.20;99.90;;;;;;5008284;28;20193;-83
2022/05/09 04:24:31;;;;;;;0.40;0.40;;;13.30;99.90;;;;;;5001283;28;20268;-82
2022/05/09 04:26:58;;;;;;;0.30;0.30;;;13.40;99.90;;;;;;5006266;28;20283;-83
2022/05/09 04:29:25;;;;;;;5.30;0.57;;;13.50;99.90;;;;;;5001988;28;20222;-83
2022/05/09 04:31:51;;;;;;;0.60;0.60;;;13.60;99.90;;;;;;5007732;28;20265;-83
2022/05/09 04:34:16;;;;;;;0.37;0.37;;;13.40;99.90;;;;;;5007810;28;20214;-83
2022/05/09 04:36:42;;;;;;;1.27;0.70;;;13.40;99.90;;;;;;5006707;28;20702;-81
2022/05/09 04:39:07;;;;;;;1.90;1.00;;;13.40;99.90;;;;;;5015174;28;20194;-82
2022/05/09 04:41:33;;;;;;;0.20;0.20;;;13.30;99.90;;;;;;5012786;28;20820;-82
2022/05/09 04:43:59;;;;;;;0.40;0.40;;;13.40;99.90;;;;;;5005461;28;20632;-81
2022/05/09 04:46:25;;;;;;;0.40;0.40;;;13.50;99.90;;;;;;4998632;28;20197;-82
2022/05/09 04:48:51;;;;;;;0.60;0.60;;;13.70;99.90;;;;;;4999857;28;20200;-81
2022/05/09 04:51:17;;;;;;;0.33;0.33;;;13.80;99.90;;;;;;5006892;28;20203;-82
2022/05/09 04:53:43;;;;;;;0.67;0.20;;;14.00;99.90;;;;;;5002569;28;20202;-82
2022/05/09 04:56:09;;;;;;;0.37;0.37;;;14.00;99.90;;;;;;5005043;28;20603;-80
2022/05/09 04:58:34;;;;;;;0.60;0.60;;;14.10;99.90;;;;;;5000511;28;20182;-81
2022/05/09 05:01:00;;;;;;;0.43;0.37;;;13.80;99.90;;;;;;4998854;28;20200;-80
2022/05/09 05:03:25;;;;;;;1.43;0.67;;;13.70;99.90;;;;;;4996191;28;20706;-81
2022/05/09 05:05:52;;;;;;;0.70;0.70;;;13.70;99.90;;;;;;4996236;28;20181;-80
2022/05/09 05:08:18;;;;;;;0.20;0.20;;;13.70;99.90;;;;;;4995847;28;20665;-80
2022/05/09 05:10:44;;;;;;;1.13;1.03;;;13.70;99.90;;;;;;4996565;28;20205;-80
2022/05/09 05:13:12;;;;;;;3.80;0.70;;;13.70;99.90;;;;;;4998276;28;20209;-80
2022/05/09 05:15:38;;;;;;;0.50;0.50;;;13.70;99.90;;;;;;5003793;28;20560;-80
2022/05/09 05:18:04;;;;;;;0.23;0.23;;;13.80;99.90;;;;;;5003173;28;20659;-80
2022/05/09 05:20:30;;;;;;;0.33;0.30;;;13.90;99.90;;;;;;5004603;28;20268;-80
2022/05/09 05:22:55;;;;;;;0.33;0.33;;;14.10;99.90;;;;;;5004077;28;20846;-80
2022/05/09 05:25:29;;;;;;;0.47;0.47;;;14.20;99.90;;;;;;4998206;28;20303;-80
2022/05/09 05:27:54;;;;;;;0.40;0.40;;;14.30;99.90;;;;;;4997532;28;20655;-80
2022/05/09 05:30:21;;;;;;;0.27;0.27;;;14.50;99.90;;;;;;4998896;28;20183;-80
2022/05/09 05:32:48;;;;;;;4.73;0.63;;;14.60;99.90;;;;;;4997587;28;20716;-80
2022/05/09 05:35:18;;;;;;;0.30;0.30;;;14.80;99.90;;;;;;4998658;28;20260;-80
2022/05/09 05:37:43;;;;;;;0.40;0.40;;;14.90;99.90;;;;;;4998551;28;20183;-80
2022/05/09 05:40:13;;;;;;;1.20;1.13;;;14.90;99.90;;;;;;4999143;28;20552;-82
2022/05/09 05:42:42;;;;;;;0.43;0.43;;;15.10;99.90;;;;;;4999742;28;20190;-82
2022/05/09 05:45:10;;;;;;;0.37;0.23;;;15.30;99.90;;;;;;4998982;28;20184;-82
2022/05/09 05:47:36;;;;;;;1.50;1.37;;;15.40;99.90;;;;;;4996899;28;20214;-80
2022/05/09 05:50:03;;;;;;;0.43;0.43;;;15.40;99.90;;;;;;4995674;28;21036;-80
2022/05/09 05:52:29;;;;;;;0.60;0.50;;;15.60;99.90;;;;;;5012424;28;20206;-80
2022/05/09 05:54:54;;;;;;;0.93;0.53;;;15.80;99.90;;;;;;5002318;28;20615;-80
2022/05/09 05:57:21;;;;;;;0.50;0.50;;;15.80;99.90;;;;;;5013562;28;20202;-80
2022/05/09 05:59:52;;;;;;;0.60;0.60;;;15.90;99.90;;;;;;5004063;28;20199;-80
2022/05/09 06:02:18;;;;;;;1.27;0.70;;;15.90;99.90;;;;;;4999530;28;20207;-81
2022/05/09 06:04:44;;;;;;;0.33;0.30;;;15.90;99.90;;;;;;5000698;28;20222;-79
2022/05/09 06:07:12;;;;;;;0.60;0.60;;;16.00;99.90;;;;;;4999624;28;20203;-82
2022/05/09 06:09:39;;;;;;;0.50;0.50;;;16.10;99.90;;;;;;5017937;28;20183;-81
2022/05/09 06:12:05;;;;;;;0.57;0.57;;;16.30;99.90;;;;;;5001332;28;20592;-82
2022/05/09 06:14:30;;;;;;;0.60;0.60;;;16.40;99.90;;;;;;4999279;28;20242;-82
2022/05/09 06:16:56;;;;;;;0.10;0.10;;;16.40;99.90;;;;;;5016709;28;20223;-82
2022/05/09 06:19:23;;;;;;;0.83;0.30;;;16.60;99.90;;;;;;5006227;28;20652;-80
2022/05/09 06:21:50;;;;;;;0.57;0.57;;;16.60;99.90;;;;;;5002142;28;20187;-81
2022/05/09 06:24:16;;;;;;;0.40;0.40;;;16.90;99.90;;;;;;5006459;28;20687;-80
2022/05/09 06:26:42;;;;;;;1.07;0.70;;;17.10;99.90;;;;;;5007966;28;20190;-81
2022/05/09 06:29:08;;;;;;;1.73;0.93;;;17.20;99.90;;;;;;5016852;28;20551;-80
2022/05/09 06:31:35;;;;;;;0.30;0.30;;;17.00;99.90;;;;;;5001549;28;20199;-81
2022/05/09 06:34:02;;;;;;;0.40;0.40;;;17.10;99.90;;;;;;5001524;28;20203;-81
2022/05/09 06:36:31;;;;;;;0.63;0.60;;;17.20;99.90;;;;;;4999699;28;20210;-81
2022/05/09 06:38:57;;;;;;;0.53;0.53;;;17.10;99.90;;;;;;5001313;28;20657;-80
2022/05/09 06:41:23;;;;;;;0.40;0.40;;;17.20;99.90;;;;;;5001004;28;20195;-81
2022/05/09 06:43:48;;;;;;;0.70;0.57;;;17.50;99.90;;;;;;5000637;28;20254;-81
2022/05/09 06:46:14;;;;;;;0.90;0.90;;;17.50;99.90;;;;;;5002494;28;20652;-81
2022/05/09 06:48:39;;;;;;;2.37;0.90;;;17.50;99.90;;;;;;5007545;28;20233;-80
2022/05/09 06:51:05;;;;;;;2.13;0.47;;;17.50;99.90;;;;;;5000777;28;20732;-81
2022/05/09 06:53:30;;;;;;;1.17;1.07;;;17.40;99.90;;;;;;5014407;28;20208;-80
2022/05/09 06:55:56;;;;;;;3.00;0.70;;;17.60;99.90;;;;;;5016927;28;20536;-82
2022/05/09 06:58:23;;;;;;;0.63;0.63;;;17.60;99.90;;;;;;5000237;28;20197;-81
2022/05/09 07:00:50;;;;;;;0.70;0.60;;;17.90;99.90;;;;;;5001848;28;20353;-80
2022/05/09 07:03:15;;;;;;;0.67;0.53;;;17.70;99.90;;;;;;5011905;28;20208;-86
2022/05/09 07:05:44;;;;;;;1.03;0.77;;;17.70;99.90;;;;;;5005021;28;20187;-84
2022/05/09 07:08:11;;;;;;;0.37;0.37;;;17.80;99.90;;;;;;5000446;28;20202;-85
2022/05/09 07:10:37;;;;;;;0.40;0.40;;;18.00;99.90;;;;;;5004777;28;20199;-80
2022/05/09 07:13:04;;;;;;;0.67;0.60;;;18.20;99.90;;;;;;5017148;28;20703;-82
2022/05/09 07:15:31;;;;;;;0.73;0.73;;;18.60;99.90;;;;;;5007294;28;21009;-82
2022/05/09 07:17:58;;;;;;;0.50;0.50;;;18.50;99.90;;;;;;5001137;28;20183;-83
2022/05/09 07:20:27;;;;;;;0.73;0.73;;;18.40;99.90;;;;;;5002581;28;20187;-82
2022/05/09 07:22:55;;;;;;;0.90;0.67;;;18.80;99.90;;;;;;5001177;28;20211;-83
2022/05/09 07:25:23;;;;;;;0.37;0.37;;;18.90;99.90;;;;;;5001630;28;20195;-83
2022/05/09 07:27:48;;;;;;;0.60;0.60;;;19.20;99.90;;;;;;5001289;28;20726;-82
2022/05/09 07:30:19;;;;;;;0.30;0.30;;;19.00;99.90;;;;;;5002121;28;20243;-84
2022/05/09 07:32:46;;;;;;;2.73;0.70;;;19.20;99.90;;;;;;5007042;28;20207;-84
2022/05/09 07:35:14;;;;;;;0.77;0.77;;;18.80;99.90;;;;;;5008302;28;20184;-82
2022/05/09 07:37:40;;;;;;;0.70;0.70;;;18.80;99.90;;;;;;5002955;28;20189;-82
2022/05/09 07:40:10;;;;;;;0.50;0.50;;;18.70;99.90;;;;;;5001654;28;20210;-83
2022/05/09 07:42:36;;;;;;;0.90;0.50;;;18.90;99.90;;;;;;5007315;28;20188;-83
2022/05/09 07:45:04;;;;;;;1.03;0.60;;;18.50;99.90;;;;;;5000768;28;20274;-82
2022/05/09 07:47:29;;;;;;;1.80;0.50;;;18.90;99.90;;;;;;5002393;28;20185;-82
2022/05/09 07:49:55;;;;;;;1.03;0.40;;;19.40;99.90;;;;;;5016097;28;20221;-82
2022/05/09 07:52:21;;;;;;;1.50;1.43;;;19.20;99.90;;;;;;5001213;28;20274;-83
2022/05/09 07:54:48;;;;;;;0.47;0.43;;;18.90;99.90;;;;;;5014529;28;20297;-83
2022/05/09 07:57:14;;;;;;;0.40;0.40;;;19.00;99.90;;;;;;5000187;28;20183;-82
2022/05/09 07:59:39;;;;;;;0.50;0.50;;;19.20;99.90;;;;;;5000178;28;20275;-83
2022/05/09 08:02:06;;;;;;;2.17;1.17;;;18.90;99.90;;;;;;5007108;28;20195;-83
2022/05/09 08:04:32;;;;;;;0.40;0.40;;;18.90;99.90;;;;;;4999946;28;20940;-83
2022/05/09 08:06:57;;;;;;;0.40;0.40;;;19.20;99.90;;;;;;5007199;28;20291;-82
2022/05/09 08:09:23;;;;;;;1.10;0.60;;;19.10;99.90;;;;;;5015556;28;20532;-83
2022/05/09 08:11:48;;;;;;;0.40;0.40;;;19.40;99.90;;;;;;5002205;28;20212;-82
2022/05/09 08:14:14;;;;;;;1.27;0.70;;;19.20;99.90;;;;;;4999451;28;20229;-81
2022/05/09 08:16:40;;;;;;;0.87;0.87;;;19.60;99.90;;;;;;5007236;28;20190;-83
2022/05/09 08:19:06;;;;;;;0.23;0.23;;;19.90;99.90;;;;;;4998471;28;20186;-83
2022/05/09 08:21:31;;;;;;;0.67;0.67;;;20.30;99.90;;;;;;5001731;28;20294;-81
2022/05/09 08:24:00;;;;;;;0.30;0.30;;;20.20;99.90;;;;;;5005820;28;20551;-82
2022/05/09 08:26:25;;;;;;;0.60;0.60;;;20.40;99.90;;;;;;5001060;28;20190;-83
2022/05/09 08:28:53;;;;;;;1.07;0.70;;;20.70;99.90;;;;;;5005878;28;20218;-81
2022/05/09 08:31:19;;;;;;;0.40;0.40;;;21.00;99.90;;;;;;4999985;28;20590;-83
2022/05/09 08:33:49;;;;;;;0.57;0.40;;;21.00;99.90;;;;;;5000049;28;20279;-82
2022/05/09 08:37:00;;;;;;;1.57;0.80;;;20.50;99.90;;;;;;5000705;28;20841;-82
2022/05/09 08:39:02;;;;;;;0.23;0.23;;;20.70;99.90;;;;;;4993804;28;20192;-83
2022/05/09 08:41:35;;;;;;;0.27;0.27;;;20.90;99.90;;;;;;4999836;28;20269;-82
2022/05/09 08:44:20;;;;;;;0.37;0.37;;;21.30;99.90;;;;;;4998980;28;20290;-81
2022/05/09 08:47:03;;;;;;;1.23;0.80;;;21.30;99.90;;;;;;5013815;28;20759;-85
2022/05/09 08:50:00;;;;;;;0.60;0.60;;;20.40;99.90;;;;;;5016984;28;20226;-82
2022/05/09 08:52:33;;;;;;;0.93;0.93;;;20.70;99.90;;;;;;4999773;28;20206;-81
2022/05/09 08:54:58;;;;;;;1.50;0.53;;;20.80;99.90;;;;;;4999092;28;20178;-82
2022/05/09 08:57:36;;;;;;;5.20;0.90;;;20.70;99.90;;;;;;5005638;28;20652;-82
2022/05/09 09:00:10;;;;;;;2.33;0.87;;;21.20;99.90;;;;;;5000201;28;20223;-82
2022/05/09 09:03:15;;;;;;;1.83;0.83;;;20.70;99.90;;;;;;4996784;28;20213;-83
2022/05/09 09:05:44;;;;;;;0.50;0.50;;;20.70;99.90;;;;;;5006136;28;20183;-82
2022/05/09 09:08:09;;;;;;;2.10;0.60;;;21.50;99.90;;;;;;5005984;28;20202;-82
2022/05/09 09:10:52;;;;;;;0.40;0.40;;;22.00;99.90;;;;;;4999260;28;20193;-82
2022/05/09 09:13:42;;;;;;;0.53;0.53;;;22.00;99.90;;;;;;4998395;28;20223;-82
2022/05/09 09:16:24;;;;;;;1.17;0.90;;;22.00;99.90;;;;;;5013531;28;20183;-83
2022/05/09 09:19:05;;;;;;;0.83;0.50;;;22.40;99.90;;;;;;4999755;28;20195;-82
2022/05/09 09:21:52;;;;;;;1.90;1.37;;;22.00;99.90;;;;;;5014472;28;20387;-83
2022/05/09 09:24:27;;;;;;;0.83;0.40;;;21.60;99.90;;;;;;4998937;28;20202;-83
2022/05/09 09:27:24;;;;;;;1.00;0.70;;;21.90;99.90;;;;;;4998814;28;20216;-83
2022/05/09 09:29:55;;;;;;;1.00;0.60;;;22.20;99.90;;;;;;4995255;28;20288;-83
2022/05/09 09:32:22;;;;;;;0.67;0.67;;;22.60;99.90;;;;;;4998475;28;20336;-82
2022/05/09 09:35:00;;;;;;;0.43;0.40;;;22.90;99.90;;;;;;5005103;28;20680;-83
2022/05/09 09:37:36;;;;;;;0.50;0.50;;;23.10;99.90;;;;;;5014631;28;20175;-84
2022/05/09 09:40:04;;;;;;;0.80;0.80;;;23.00;99.90;;;;;;5000035;28;20233;-83
2022/05/09 09:42:30;;;;;;;0.87;0.87;;;23.30;99.90;;;;;;4999122;28;20208;-83
2022/05/09 09:44:58;;;;;;;0.50;0.50;;;23.10;99.90;;;;;;4999483;28;20727;-84
2022/05/09 09:47:26;;;;;;;0.60;0.60;;;23.30;99.90;;;;;;5014422;28;20205;-84
2022/05/09 09:50:28;;;;;;;0.57;0.57;;;23.50;99.90;;;;;;4998914;28;20179;-84
2022/05/09 09:52:55;;;;;;;0.37;0.37;;;22.50;99.90;;;;;;4995511;28;20234;-83
2022/05/09 09:55:31;;;;;;;0.40;0.40;;;23.00;99.90;;;;;;4993146;28;20207;-83
2022/05/09 09:58:17;;;;;;;1.73;0.73;;;23.10;99.90;;;;;;5013474;28;20187;-82
2022/05/09 10:00:42;;;;;;;0.47;0.40;;;22.60;99.90;;;;;;4998243;28;20239;-83
2022/05/09 10:03:21;;;;;;;0.63;0.63;;;22.80;99.90;;;;;;5011334;28;20689;-83
2022/05/09 10:05:50;;;;;;;0.83;0.83;;;23.30;99.90;;;;;;4999213;28;20222;-83
2022/05/09 10:08:39;;;;;;;0.67;0.67;;;23.40;99.90;;;;;;5003978;28;20203;-82
2022/05/09 10:11:10;;;;;;;0.50;0.50;;;23.40;99.90;;;;;;5000694;28;20226;-84
2022/05/09 10:13:41;;;;;;;0.80;0.70;;;23.70;99.90;;;;;;4999486;28;20261;-83
2022/05/09 10:16:11;;;;;;;0.63;0.63;;;24.00;99.90;;;;;;5004654;28;20183;-82
2022/05/09 10:18:37;;;;;;;2.20;0.97;;;23.80;99.90;;;;;;4997267;28;20665;-82
2022/05/09 10:24:47;;;;;;;1.17;1.07;;;24.10;99.90;;;;;;4997679;28;20192;-82
2022/05/09 10:27:06;;;;;;;0.83;0.63;;;24.10;99.90;;;;;;4997898;28;20199;-83
2022/05/09 10:29:38;;;;;;;0.53;0.53;;;24.40;99.90;;;;;;5014866;28;20219;-82
2022/05/09 10:32:10;;;;;;;0.93;0.93;;;24.60;99.90;;;;;;5000077;28;20207;-83
2022/05/09 10:34:55;;;;;;;0.80;0.77;;;24.60;99.90;;;;;;4998333;28;20207;-83
2022/05/09 10:37:23;;;;;;;0.30;0.30;;;24.80;99.90;;;;;;4999678;28;20190;-83
2022/05/09 10:39:59;;;;;;;1.03;1.03;;;24.60;99.90;;;;;;4998654;28;20183;-81
2022/05/09 10:42:34;;;;;;;0.63;0.63;;;23.80;99.90;;;;;;4998388;28;20253;-84
2022/05/09 10:45:24;;;;;;;5.50;1.10;;;23.40;99.90;;;;;;5003592;28;20183;-82
2022/05/09 10:47:55;;;;;;;0.40;0.40;;;23.90;99.90;;;;;;5002494;28;20179;-83
2022/05/09 10:50:35;;;;;;;3.03;0.97;;;24.40;99.90;;;;;;5017338;28;20205;-83
2022/05/09 10:53:21;;;;;;;1.47;0.83;;;24.40;99.90;;;;;;5014146;28;20305;-83
2022/05/09 10:56:05;;;;;;;0.80;0.80;;;24.40;99.90;;;;;;5003888;28;20290;-81
2022/05/09 10:58:35;;;;;;;0.50;0.50;;;24.20;99.90;;;;;;5000281;28;20598;-82
2022/05/09 11:01:32;;;;;;;2.07;0.63;;;24.30;99.90;;;;;;5001575;28;20191;-81
2022/05/09 11:03:58;;;;;;;0.60;0.60;;;24.90;99.90;;;;;;4988523;28;20277;-83
2022/05/09 11:06:57;;;;;;;0.50;0.50;;;25.00;99.90;;;;;;5002028;28;20975;-82
2022/05/09 11:09:52;;;;;;;1.50;1.37;;;24.40;99.90;;;;;;5006769;28;20191;-82
2022/05/09 11:12:47;;;;;;;0.70;0.70;;;24.40;99.90;;;;;;5003358;28;20208;-82
2022/05/09 11:15:42;;;;;;;0.83;0.80;;;23.80;99.90;;;;;;5000775;28;20202;-82
2022/05/09 11:18:47;;;;;;;0.57;0.57;;;24.20;99.90;;;;;;4998559;28;20194;-82
2022/05/09 11:21:37;;;;;;;1.20;1.00;;;24.60;99.90;;;;;;5001236;28;20214;-81
2022/05/09 11:24:11;;;;;;;3.57;2.30;;;23.60;99.90;;;;;;5000230;28;20223;-82
2022/05/09 11:27:02;;;;;;;0.70;0.70;;;23.60;99.90;;;;;;5016588;28;20450;-82
2022/05/09 11:29:30;;;;;;;0.53;0.47;;;24.20;99.90;;;;;;5015399;28;20186;-82
2022/05/09 11:32:26;;;;;;;1.53;1.10;;;24.10;99.90;;;;;;5001450;28;20211;-81
2022/05/09 11:35:26;;;;;;;4.33;1.27;;;24.30;99.90;;;;;;5000378;28;20196;-82
2022/05/09 11:38:16;;;;;;;1.00;0.80;;;23.80;99.90;;;;;;5016332;28;20226;-81
2022/05/09 11:40:58;;;;;;;1.93;1.50;;;24.10;99.90;;;;;;5000969;28;20191;-82
2022/05/09 11:43:51;;;;;;;0.70;0.70;;;24.20;99.90;;;;;;5000031;28;20627;-82
2022/05/09 11:46:40;;;;;;;0.80;0.80;;;24.40;99.90;;;;;;4995650;28;20338;-82
2022/05/09 11:49:47;;;;;;;0.70;0.70;;;24.70;99.90;;;;;;5015275;28;20179;-82
2022/05/09 11:52:34;;;;;;;0.57;0.57;;;24.20;99.90;;;;;;4988005;28;20238;-82
2022/05/09 11:55:21;;;;;;;0.57;0.50;;;24.50;99.90;;;;;;5007616;28;20186;-81
2022/05/09 11:57:56;;;;;;;0.80;0.80;;;25.20;99.90;;;;;;4999932;28;20277;-82
2022/05/09 12:00:33;;;;;;;0.50;0.50;;;25.20;99.90;;;;;;5001369;28;20182;-81
2022/05/09 12:03:01;;;;;;;0.47;0.47;;;25.10;99.90;;;;;;5016152;28;20297;-82
2022/05/09 12:05:26;;;;;;;0.60;0.60;;;25.50;99.90;;;;;;5005585;28;20176;-82
2022/05/09 12:08:05;;;;;;;1.57;0.70;;;25.70;99.90;;;;;;4999337;28;20290;-82
2022/05/09 12:10:35;;;;;;;0.93;0.93;;;25.60;99.90;;;;;;5005178;28;20237;-82
2022/05/09 12:13:42;;;;;;;1.93;1.00;;;24.30;99.90;;;;;;4998173;28;20771;-82
2022/05/09 12:16:08;;;;;;;1.00;0.73;;;24.60;99.90;;;;;;4979551;28;20665;-82
2022/05/09 12:18:54;;;;;;;2.30;0.80;;;25.00;99.90;;;;;;5005471;28;20191;-82
2022/05/09 12:21:22;;;;;;;0.93;0.90;;;25.60;99.90;;;;;;5000443;28;20196;-82
2022/05/09 12:23:50;;;;;;;1.20;0.60;;;25.80;99.90;;;;;;5000031;28;20210;-82
2022/05/09 12:26:32;;;;;;;1.20;0.90;;;26.10;99.90;;;;;;5005308;28;20565;-81
2022/05/09 12:29:18;;;;;;;1.07;0.87;;;24.90;99.90;;;;;;4999948;28;20209;-81
2022/05/09 12:31:50;;;;;;;0.97;0.97;;;24.40;99.90;;;;;;4998617;28;20722;-82
2022/05/09 12:34:20;;;;;;;0.87;0.70;;;24.30;99.90;;;;;;4999721;28;20277;-81
2022/05/09 12:36:46;;;;;;;2.40;0.73;;;25.00;99.90;;;;;;4997575;28;20187;-82
2022/05/09 12:39:18;;;;;;;1.33;1.00;;;25.30;99.90;;;;;;4999778;28;20212;-81
2022/05/09 12:41:52;;;;;;;0.80;0.80;;;25.30;99.90;;;;;;4999308;28;20191;-82
2022/05/09 12:44:25;;;;;;;0.60;0.60;;;25.50;99.90;;;;;;5000140;28;20218;-82
2022/05/09 12:46:53;;;;;;;0.60;0.60;;;25.30;99.90;;;;;;4998049;28;20192;-82
2022/05/09 12:49:32;;;;;;;1.47;1.00;;;24.90;99.90;;;;;;4998365;28;20245;-81
2022/05/09 12:51:58;;;;;;;1.40;0.83;;;24.70;99.90;;;;;;4999785;28;20270;-82
2022/05/09 12:54:26;;;;;;;2.13;2.00;;;24.60;99.90;;;;;;5014444;28;20207;-82
2022/05/09 12:56:56;;;;;;;1.30;1.20;;;25.30;99.90;;;;;;4997360;28;20187;-82
2022/05/09 12:59:22;;;;;;;1.13;1.07;;;24.90;99.90;;;;;;4999286;28;20183;-82
2022/05/09 13:02:00;;;;;;;1.17;0.90;;;25.00;99.90;;;;;;4997958;28;20633;-81
2022/05/09 13:04:30;;;;;;;0.73;0.73;;;24.80;99.90;;;;;;5005461;28;20723;-82
2022/05/09 13:07:01;;;;;;;0.40;0.40;;;24.60;99.90;;;;;;4999627;28;20215;-82
2022/05/09 13:09:35;;;;;;;0.40;0.40;;;25.00;99.90;;;;;;4999148;28;20371;-82
2022/05/09 13:12:04;;;;;;;0.70;0.70;;;25.70;99.90;;;;;;4999298;28;20224;-82
2022/05/09 13:14:36;;;;;;;0.47;0.47;;;26.30;99.90;;;;;;4999512;28;20609;-81
2022/05/09 13:17:04;;;;;;;0.57;0.50;;;25.60;99.90;;;;;;4998408;28;20183;-82
2022/05/09 13:19:31;;;;;;;0.73;0.73;;;25.50;99.90;;;;;;5001428;28;20657;-82